Anna, Texas
Current Conditions -  °F | °C
As of 6:53 PM on Friday 24 Oct 2014 (Local Time) from KTKI Reporting Station
Clear Clear  
Wind Chill: 75°   Ceiling: Unl
Heat Index: 75°   Visibility: 10mi
Dew Point: 60°   Wind: 8mph
Humidity: 60%   Direction: 150°SSE
Pressure: 30.07"   Gusts: NA
Location:  33.35°N, 96.55°W
Report Text: KTKI 242353Z 15007KT 10SM CLR 24/16 A3007 RMK AO2 SLP182 T02390156 10278 20239 55005
Loading
Personal Weather Stations






























Interactive Weather Map
Tropical Storm Tracking
New forecast layout! Learn more

10-Day Weather Forecast

Advertisements
Track Severe Weather on mobile